createdAt,value
2018-07-23T00:01:33.854Z,18.51
2018-07-23T00:04:02.018Z,18.47
2018-07-23T00:06:30.381Z,18.46
2018-07-23T00:08:58.773Z,18.43
2018-07-23T00:11:28.127Z,18.45
2018-07-23T00:13:56.509Z,18.57
2018-07-23T00:16:24.877Z,18.66
2018-07-23T00:18:53.243Z,18.67
2018-07-23T00:21:21.615Z,18.64
2018-07-23T00:23:49.986Z,18.58
2018-07-23T00:26:18.353Z,18.52
2018-07-23T00:28:46.731Z,18.49
2018-07-23T00:31:15.098Z,18.48
2018-07-23T00:33:43.469Z,18.43
2018-07-23T00:36:11.845Z,18.36
2018-07-23T00:38:40.230Z,18.31
2018-07-23T00:41:08.581Z,18.25
2018-07-23T00:43:36.950Z,18.23
2018-07-23T00:46:05.322Z,18.24
2018-07-23T00:48:33.685Z,18.20
2018-07-23T00:51:02.057Z,18.21
2018-07-23T00:53:30.421Z,18.20
2018-07-23T00:55:58.795Z,18.23
2018-07-23T00:58:27.171Z,18.29
2018-07-23T01:00:55.551Z,18.47
2018-07-23T01:03:24.036Z,18.62
2018-07-23T01:05:52.409Z,18.72
2018-07-23T01:08:20.791Z,18.73
2018-07-23T01:10:49.147Z,18.50
2018-07-23T01:13:17.740Z,18.27
2018-07-23T01:15:45.877Z,18.25
2018-07-23T01:18:14.242Z,18.32
2018-07-23T01:20:42.618Z,18.45
2018-07-23T01:23:10.976Z,18.57
2018-07-23T01:25:39.342Z,18.52
2018-07-23T01:28:07.706Z,18.35
2018-07-23T01:30:36.077Z,18.14
2018-07-23T01:33:04.456Z,17.95
2018-07-23T01:35:32.815Z,17.89
2018-07-23T01:38:01.182Z,17.81
2018-07-23T01:40:29.542Z,17.75
2018-07-23T01:42:57.921Z,17.71
2018-07-23T01:45:26.593Z,17.71
2018-07-23T01:47:54.957Z,17.85
2018-07-23T01:50:23.322Z,18.03
2018-07-23T01:52:51.686Z,18.18
2018-07-23T01:55:20.055Z,18.18
2018-07-23T01:57:48.426Z,18.29
2018-07-23T02:00:16.786Z,18.38
2018-07-23T02:02:45.176Z,18.36
2018-07-23T02:05:13.569Z,18.20
2018-07-23T02:07:41.936Z,18.16
2018-07-23T02:10:10.310Z,18.22
2018-07-23T02:12:38.686Z,18.26
2018-07-23T02:15:07.075Z,18.30
2018-07-23T02:17:35.435Z,18.24
2018-07-23T02:20:04.464Z,18.10
2018-07-23T02:22:32.824Z,17.96
2018-07-23T02:25:01.182Z,18.05
2018-07-23T02:27:29.557Z,18.19
2018-07-23T02:29:57.917Z,18.26
2018-07-23T02:32:26.296Z,18.27
2018-07-23T02:34:54.656Z,18.26
2018-07-23T02:37:23.121Z,18.28
2018-07-23T02:39:51.388Z,18.23
2018-07-23T02:42:19.981Z,18.18
2018-07-23T02:44:48.338Z,18.25
2018-07-23T02:47:16.708Z,18.27
2018-07-23T02:49:45.080Z,18.35
2018-07-23T02:52:13.446Z,18.42
2018-07-23T02:54:42.698Z,18.50
2018-07-23T02:57:11.070Z,18.41
2018-07-23T02:59:39.453Z,18.35
2018-07-23T03:02:07.815Z,18.31
2018-07-23T03:04:36.176Z,18.32
2018-07-23T03:07:04.575Z,18.25
2018-07-23T03:09:32.944Z,18.20
2018-07-23T03:12:01.312Z,18.11
2018-07-23T03:14:31.650Z,18.04
2018-07-23T03:17:00.035Z,17.85
2018-07-23T03:19:28.406Z,17.70
2018-07-23T03:21:56.829Z,17.62
2018-07-23T03:24:25.169Z,17.56
2018-07-23T03:26:53.510Z,17.51
2018-07-23T03:29:22.104Z,17.50
2018-07-23T03:31:50.240Z,17.61
2018-07-23T03:34:18.608Z,17.56
2018-07-23T03:36:46.991Z,17.55
2018-07-23T03:39:15.364Z,17.57
2018-07-23T03:41:43.736Z,17.59
2018-07-23T03:50:09.513Z,18.01
2018-07-23T03:52:37.907Z,17.98
2018-07-23T03:55:06.290Z,17.95
2018-07-23T03:57:34.680Z,17.95
2018-07-23T04:00:03.052Z,18.02
2018-07-23T04:02:31.444Z,18.06
2018-07-23T04:04:59.837Z,18.22
2018-07-23T04:07:28.245Z,18.35
2018-07-23T04:09:56.626Z,18.38
2018-07-23T04:12:25.004Z,18.41
2018-07-23T04:14:53.416Z,18.48
2018-07-23T04:17:21.810Z,18.60
2018-07-23T04:19:50.178Z,18.75
2018-07-23T04:22:18.555Z,18.91
2018-07-23T04:24:46.933Z,19.13
2018-07-23T04:27:15.339Z,19.28
2018-07-23T04:29:43.685Z,19.43
2018-07-23T04:32:12.152Z,19.48
2018-07-23T04:34:40.522Z,19.59
2018-07-23T04:37:08.885Z,19.68
2018-07-23T04:39:37.254Z,19.80
2018-07-23T04:42:05.643Z,19.87
2018-07-23T04:44:34.012Z,19.99
2018-07-23T04:47:02.395Z,20.04
2018-07-23T04:49:30.776Z,20.11
2018-07-23T04:51:59.156Z,20.07
2018-07-23T04:54:27.522Z,20.09
2018-07-23T04:56:55.936Z,20.16
2018-07-23T04:59:24.296Z,20.25
2018-07-23T05:01:52.668Z,20.33
2018-07-23T05:04:21.053Z,20.32
2018-07-23T05:06:49.415Z,20.39
2018-07-23T05:09:17.851Z,20.42
2018-07-23T05:11:46.283Z,20.48
2018-07-23T05:14:14.677Z,20.58
2018-07-23T05:16:43.066Z,20.69
2018-07-23T05:19:11.667Z,20.82
2018-07-23T05:24:29.084Z,21.08
2018-07-23T05:26:57.430Z,21.17
2018-07-23T05:29:25.815Z,21.24
2018-07-23T05:31:54.232Z,21.29
2018-07-23T05:34:22.580Z,21.33
2018-07-23T05:42:42.074Z,21.67
2018-07-23T05:45:06.421Z,21.78
2018-07-23T05:47:34.797Z,21.87
2018-07-23T05:50:03.200Z,22.00
2018-07-23T05:52:31.598Z,22.11
2018-07-23T05:54:59.993Z,22.19
2018-07-23T05:57:28.412Z,22.26
2018-07-23T05:59:56.806Z,22.32
2018-07-23T06:02:25.986Z,22.40
2018-07-23T06:04:54.376Z,22.46
2018-07-23T06:07:22.792Z,22.52
2018-07-23T06:09:51.252Z,22.59
2018-07-23T06:12:19.638Z,22.70
2018-07-23T06:14:48.239Z,22.78
2018-07-23T06:17:17.196Z,22.86
2018-07-23T06:19:45.948Z,22.95
2018-07-23T06:22:14.865Z,23.05
2018-07-23T06:24:43.314Z,23.13
2018-07-23T06:27:11.972Z,23.19
2018-07-23T06:29:40.347Z,23.23
2018-07-23T06:32:08.776Z,23.31
2018-07-23T06:34:37.121Z,23.39
2018-07-23T06:37:05.496Z,23.45
2018-07-23T06:39:33.870Z,23.52
2018-07-23T06:42:11.195Z,23.56
2018-07-23T06:44:35.883Z,23.58
2018-07-23T06:47:04.268Z,23.63
2018-07-23T06:49:32.650Z,23.68
2018-07-23T06:52:01.026Z,23.69
2018-07-23T06:54:29.404Z,23.69
2018-07-23T06:56:58.067Z,23.75
2018-07-23T06:59:26.165Z,23.78
2018-07-23T07:01:54.542Z,23.81
2018-07-23T07:04:28.080Z,23.85
2018-07-23T07:06:56.481Z,23.91
2018-07-23T07:09:25.782Z,24.01
2018-07-23T07:11:53.408Z,24.13
2018-07-23T07:14:21.803Z,24.21
2018-07-23T07:16:50.171Z,24.29
2018-07-23T07:19:18.553Z,24.38
2018-07-23T07:21:46.934Z,24.43
2018-07-23T07:24:15.366Z,24.49
2018-07-23T07:26:43.693Z,24.53
2018-07-23T07:29:12.084Z,24.60
2018-07-23T07:31:41.175Z,24.67
2018-07-23T07:34:09.541Z,24.73
2018-07-23T07:36:37.913Z,24.77
2018-07-23T07:39:10.548Z,24.80
2018-07-23T07:41:36.261Z,24.83
2018-07-23T07:44:04.625Z,24.87
2018-07-23T07:46:33.059Z,24.94
2018-07-23T07:49:01.376Z,25.02
2018-07-23T07:51:29.742Z,25.10
2018-07-23T07:53:58.139Z,25.16
2018-07-23T07:56:26.523Z,25.19
2018-07-23T07:58:54.902Z,25.24
2018-07-23T08:01:23.270Z,25.26
2018-07-23T08:03:51.638Z,25.30
2018-07-23T08:06:20.016Z,25.33
2018-07-23T08:08:48.738Z,25.39
2018-07-23T08:11:17.123Z,25.44
2018-07-23T08:13:45.519Z,25.46
2018-07-23T08:16:13.887Z,25.48
2018-07-23T08:18:42.242Z,25.50
2018-07-23T08:21:10.608Z,25.59
2018-07-23T08:23:38.978Z,25.64
2018-07-23T08:26:07.340Z,25.66
2018-07-23T08:28:35.702Z,25.68
2018-07-23T08:31:04.071Z,25.70
2018-07-23T08:33:32.447Z,25.71
2018-07-23T08:36:00.806Z,25.74
2018-07-23T08:38:29.260Z,25.78
2018-07-23T08:40:57.585Z,25.81
2018-07-23T08:43:25.960Z,25.86
2018-07-23T08:45:54.344Z,25.89
2018-07-23T08:48:22.722Z,25.97
2018-07-23T08:50:51.099Z,26.04
2018-07-23T08:53:19.464Z,26.11
2018-07-23T08:55:47.833Z,26.16
2018-07-23T08:58:16.480Z,26.25
2018-07-23T09:00:44.868Z,26.39
2018-07-23T09:03:13.464Z,26.47
2018-07-23T09:05:41.599Z,26.49
2018-07-23T09:08:09.969Z,26.48
2018-07-23T09:10:38.338Z,26.51
2018-07-23T09:13:06.709Z,26.53
2018-07-23T09:15:35.122Z,26.58
2018-07-23T09:18:03.514Z,26.59
2018-07-23T09:20:32.189Z,26.65
2018-07-23T09:23:03.987Z,26.72
2018-07-23T09:25:32.383Z,26.82
2018-07-23T09:28:00.761Z,26.90
2018-07-23T09:30:29.426Z,26.94
2018-07-23T09:32:57.787Z,26.98
2018-07-23T09:35:26.150Z,27.02
2018-07-23T09:37:54.521Z,27.06
2018-07-23T09:40:22.900Z,27.06
2018-07-23T09:42:51.255Z,27.11
2018-07-23T09:45:21.705Z,27.16
2018-07-23T09:47:49.746Z,27.17
2018-07-23T09:50:18.127Z,27.16
2018-07-23T09:52:46.836Z,27.20
2018-07-23T09:55:15.207Z,27.25
2018-07-23T09:57:43.568Z,27.31
2018-07-23T10:00:12.170Z,27.28
2018-07-23T10:02:41.113Z,27.27
2018-07-23T10:05:09.480Z,27.26
2018-07-23T10:07:37.867Z,27.28
2018-07-23T10:10:06.518Z,27.32
2018-07-23T10:12:34.881Z,27.39
2018-07-23T10:15:03.245Z,27.45
2018-07-23T10:17:31.645Z,27.45
2018-07-23T10:20:01.026Z,27.38
2018-07-23T10:22:28.644Z,27.40
2018-07-23T10:24:57.002Z,27.43
2018-07-23T10:27:25.767Z,27.46
2018-07-23T10:29:54.153Z,27.47
2018-07-23T10:32:22.521Z,27.47
2018-07-23T10:34:50.883Z,27.50
2018-07-23T10:37:19.248Z,27.57
2018-07-23T10:39:47.617Z,27.59
2018-07-23T10:42:15.973Z,27.64
2018-07-23T10:44:44.330Z,27.70
2018-07-23T10:47:12.701Z,27.77
2018-07-23T10:49:41.070Z,27.85
2018-07-23T10:52:09.429Z,27.93
2018-07-23T10:54:37.915Z,27.99
2018-07-23T10:57:06.279Z,28.04
2018-07-23T10:59:54.071Z,28.09
2018-07-23T11:02:22.421Z,28.13
2018-07-23T11:04:51.138Z,28.21
2018-07-23T11:07:19.583Z,28.22
2018-07-23T11:09:47.909Z,28.24
2018-07-23T11:12:16.293Z,28.29
2018-07-23T11:14:44.657Z,28.32
2018-07-23T11:17:13.012Z,28.37
2018-07-23T11:19:41.504Z,28.42
2018-07-23T11:22:09.857Z,28.53
2018-07-23T11:24:45.352Z,28.68
2018-07-23T11:27:06.589Z,28.78
2018-07-23T11:29:35.516Z,28.89
2018-07-23T11:32:03.876Z,28.99
2018-07-23T11:34:32.190Z,29.12
2018-07-23T11:37:01.774Z,29.20
2018-07-23T11:39:31.372Z,29.23
2018-07-23T11:41:59.701Z,29.15
2018-07-23T11:44:28.068Z,29.15
2018-07-23T11:46:56.436Z,29.12
2018-07-23T11:49:24.797Z,28.99
2018-07-23T11:51:53.154Z,28.98
2018-07-23T11:54:21.534Z,29.09
2018-07-23T11:56:49.929Z,29.31
2018-07-23T11:59:18.280Z,29.48
2018-07-23T12:01:46.673Z,29.62
2018-07-23T12:04:15.069Z,29.69
2018-07-23T12:06:43.415Z,29.61
2018-07-23T12:09:17.142Z,29.64
2018-07-23T12:11:41.406Z,29.65
2018-07-23T12:14:11.750Z,29.73
2018-07-23T12:16:40.524Z,29.85
2018-07-23T12:19:08.905Z,29.98
2018-07-23T12:21:37.317Z,30.20
2018-07-23T12:24:05.684Z,30.37
2018-07-23T12:26:34.962Z,30.47
2018-07-23T12:29:03.338Z,30.60
2018-07-23T12:31:31.724Z,30.71
2018-07-23T12:34:00.096Z,30.81
2018-07-23T12:36:28.671Z,30.94
2018-07-23T12:38:57.041Z,31.14
2018-07-23T12:41:25.410Z,31.36
2018-07-23T12:43:53.779Z,31.26
2018-07-23T12:46:22.155Z,31.00
2018-07-23T12:48:50.520Z,30.90
2018-07-23T12:51:18.918Z,30.94
2018-07-23T12:53:47.267Z,30.83
2018-07-23T12:56:15.635Z,30.58
2018-07-23T12:58:44.325Z,30.41
2018-07-23T13:01:12.689Z,30.55
2018-07-23T13:03:41.049Z,30.76
2018-07-23T13:06:09.415Z,31.07
2018-07-23T13:08:37.783Z,31.11
2018-07-23T13:11:06.148Z,31.27
2018-07-23T13:13:34.512Z,31.17
2018-07-23T13:16:02.886Z,30.89
2018-07-23T13:18:31.252Z,30.62
2018-07-23T13:20:59.611Z,30.40
2018-07-23T13:23:28.047Z,30.52
2018-07-23T13:25:56.435Z,30.52
2018-07-23T13:28:24.791Z,30.44
2018-07-23T13:30:53.505Z,30.57
2018-07-23T13:33:21.870Z,30.90
2018-07-23T13:35:50.236Z,31.16
2018-07-23T13:38:18.659Z,31.37
2018-07-23T13:40:46.964Z,31.62
2018-07-23T13:43:15.337Z,31.79
2018-07-23T13:45:43.704Z,31.86
2018-07-23T13:48:12.064Z,32.10
2018-07-23T13:50:40.678Z,32.51
2018-07-23T13:53:09.039Z,32.90
2018-07-23T13:55:37.411Z,33.15
2018-07-23T13:58:05.771Z,33.31
2018-07-23T14:00:35.103Z,33.47
2018-07-23T14:03:03.705Z,33.61
2018-07-23T14:05:31.849Z,33.75
2018-07-23T14:08:00.218Z,34.01
2018-07-23T14:10:28.915Z,34.04
2018-07-23T14:12:57.284Z,34.06
2018-07-23T14:15:25.648Z,33.94
2018-07-23T14:17:54.012Z,33.87
2018-07-23T14:20:22.662Z,33.85
2018-07-23T14:22:50.785Z,34.08
2018-07-23T14:25:22.282Z,34.36
2018-07-23T14:27:51.574Z,34.71
2018-07-23T14:30:19.952Z,34.81
2018-07-23T14:32:48.301Z,34.94
2018-07-23T14:35:16.723Z,34.77
2018-07-23T14:37:45.884Z,34.58
2018-07-23T14:40:14.247Z,33.78
2018-07-23T14:42:42.612Z,33.00
2018-07-23T14:45:11.048Z,32.39
2018-07-23T14:47:39.410Z,31.85
2018-07-23T14:50:07.795Z,31.36
2018-07-23T14:52:36.157Z,30.97
2018-07-23T14:55:04.516Z,30.75
2018-07-23T14:57:32.887Z,30.45
2018-07-23T15:00:01.253Z,30.19
2018-07-23T15:02:29.619Z,29.91
2018-07-23T15:05:09.039Z,29.92
2018-07-23T15:07:27.532Z,30.77
2018-07-23T15:09:55.892Z,31.13
2018-07-23T15:12:24.254Z,31.61
2018-07-23T15:14:53.387Z,32.34
2018-07-23T15:17:21.747Z,33.11
2018-07-23T15:19:50.125Z,33.46
2018-07-23T15:22:18.495Z,33.47
2018-07-23T15:24:47.188Z,33.73
2018-07-23T15:27:15.594Z,34.16
2018-07-23T15:29:43.961Z,34.61
2018-07-23T15:32:12.551Z,34.83
2018-07-23T15:34:40.912Z,35.06
2018-07-23T15:37:09.282Z,35.29
2018-07-23T15:39:37.645Z,35.63
2018-07-23T15:42:06.002Z,35.72
2018-07-23T15:44:34.512Z,35.54
2018-07-23T15:47:02.727Z,35.58
2018-07-23T15:49:31.088Z,35.76
2018-07-23T15:51:59.455Z,35.74
2018-07-23T15:54:27.818Z,35.73
2018-07-23T15:56:56.519Z,35.44
2018-07-23T15:59:24.878Z,35.17
2018-07-23T16:01:53.237Z,35.37
2018-07-23T16:04:21.602Z,35.35
2018-07-23T16:06:49.951Z,35.29
2018-07-23T16:09:18.337Z,35.22
2018-07-23T16:11:46.682Z,34.85
2018-07-23T16:14:15.051Z,35.05
2018-07-23T16:16:43.647Z,34.81
2018-07-23T16:19:11.770Z,34.75
2018-07-23T16:21:40.126Z,34.69
2018-07-23T16:24:08.477Z,34.90
2018-07-23T16:26:36.837Z,35.34
2018-07-23T16:29:05.232Z,35.40
2018-07-23T16:31:33.597Z,35.14
2018-07-23T16:34:01.961Z,34.59
2018-07-23T16:36:30.318Z,34.28
2018-07-23T16:38:58.675Z,34.02
2018-07-23T16:41:27.031Z,33.94
2018-07-23T16:43:55.395Z,33.91
2018-07-23T16:46:23.819Z,34.17
2018-07-23T16:48:52.110Z,34.03
2018-07-23T16:51:20.477Z,33.50
2018-07-23T16:53:48.865Z,32.81
2018-07-23T16:56:17.224Z,32.29
2018-07-23T16:58:45.671Z,31.80
2018-07-23T17:01:14.170Z,31.17
2018-07-23T17:03:42.524Z,30.46
2018-07-23T17:06:10.914Z,29.98
2018-07-23T17:08:39.279Z,29.68
2018-07-23T17:11:07.661Z,29.58
2018-07-23T17:13:36.029Z,29.30
2018-07-23T17:16:04.391Z,29.20
2018-07-23T17:18:32.745Z,29.19
2018-07-23T17:21:01.107Z,28.98
2018-07-23T17:23:29.473Z,29.04
2018-07-23T17:25:57.836Z,29.06
2018-07-23T17:28:26.222Z,28.91
2018-07-23T17:30:54.680Z,28.73
2018-07-23T17:33:23.051Z,28.59
2018-07-23T17:35:51.415Z,28.43
2018-07-23T17:38:19.791Z,28.31
2018-07-23T17:40:48.155Z,28.24
2018-07-23T17:43:16.521Z,28.19
2018-07-23T17:45:44.921Z,28.10
2018-07-23T17:48:13.282Z,28.09
2018-07-23T17:50:47.418Z,28.05
2018-07-23T17:53:20.488Z,28.05
2018-07-23T17:55:48.873Z,27.89
2018-07-23T17:58:17.254Z,27.68
2018-07-23T18:00:45.640Z,27.52
2018-07-23T18:03:14.011Z,27.47
2018-07-23T18:05:42.424Z,27.35
2018-07-23T18:08:10.870Z,27.24
2018-07-23T18:10:39.286Z,27.32
2018-07-23T18:13:07.621Z,27.23
2018-07-23T18:15:36.084Z,27.00
2018-07-23T18:18:04.527Z,26.82
2018-07-23T18:20:33.560Z,26.89
2018-07-23T18:23:01.911Z,26.89
2018-07-23T18:25:30.298Z,26.83
2018-07-23T18:27:58.893Z,26.84
2018-07-23T18:30:27.045Z,26.92
2018-07-23T18:32:57.327Z,26.94
2018-07-23T18:35:25.725Z,27.06
2018-07-23T18:37:54.220Z,27.05
2018-07-23T18:40:22.477Z,27.02
2018-07-23T18:42:50.896Z,26.99
2018-07-23T18:45:19.258Z,26.93
2018-07-23T18:47:49.546Z,26.75
2018-07-23T18:50:17.895Z,26.47
2018-07-23T18:52:46.265Z,26.23
2018-07-23T18:55:14.628Z,26.03
2018-07-23T18:57:42.997Z,25.81
2018-07-23T19:00:11.419Z,25.65
2018-07-23T19:02:39.833Z,25.47
2018-07-23T19:05:08.211Z,25.33
2018-07-23T19:07:36.603Z,25.22
2018-07-23T19:10:05.888Z,25.08
2018-07-23T19:12:34.269Z,24.94
2018-07-23T19:15:02.645Z,24.86
2018-07-23T19:17:31.043Z,24.86
2018-07-23T19:19:59.468Z,24.81
2018-07-23T19:22:27.801Z,24.68
2018-07-23T19:24:56.171Z,24.56
2018-07-23T19:27:24.541Z,24.40
2018-07-23T19:29:55.810Z,24.24
2018-07-23T19:35:11.348Z,24.06
2018-07-23T19:37:39.714Z,23.97
2018-07-23T19:40:08.080Z,23.96
2018-07-23T19:42:36.481Z,23.91
2018-07-23T19:45:04.869Z,23.86
2018-07-23T19:47:33.327Z,23.82
2018-07-23T19:50:01.629Z,23.82
2018-07-23T19:52:30.261Z,23.78
2018-07-23T19:54:58.407Z,23.83
2018-07-23T19:57:29.788Z,23.79
2018-07-23T20:02:42.164Z,23.46
2018-07-23T20:05:10.609Z,23.40
2018-07-23T20:07:39.163Z,23.41
2018-07-23T20:10:07.319Z,23.37
2018-07-23T20:12:37.351Z,23.24
2018-07-23T20:15:17.923Z,23.15
2018-07-23T20:17:46.426Z,23.07
2018-07-23T20:20:14.876Z,22.94
2018-07-23T20:22:43.199Z,22.87
2018-07-23T20:25:11.845Z,22.77
2018-07-23T20:27:40.254Z,22.69
2018-07-23T20:30:08.693Z,22.63
2018-07-23T20:32:37.029Z,22.60
2018-07-23T20:35:05.424Z,22.58
2018-07-23T20:40:14.023Z,22.53
2018-07-23T20:42:42.355Z,22.50
2018-07-23T20:45:15.301Z,22.41
2018-07-23T20:50:34.243Z,22.32
2018-07-23T20:53:02.612Z,22.32
2018-07-23T20:55:30.984Z,22.38
2018-07-23T20:57:59.356Z,22.35
2018-07-23T21:00:27.829Z,22.26
2018-07-23T21:02:56.125Z,22.17
2018-07-23T21:05:24.508Z,22.16
2018-07-23T21:07:52.877Z,22.19
2018-07-23T21:10:21.250Z,22.17
2018-07-23T21:12:49.626Z,22.10
2018-07-23T21:15:17.998Z,22.06
2018-07-23T21:17:49.393Z,22.01
2018-07-23T21:20:17.795Z,21.97
2018-07-23T21:22:46.167Z,22.07
2018-07-23T21:25:14.557Z,22.12
2018-07-23T21:27:42.943Z,22.20
2018-07-23T21:30:11.544Z,22.28
2018-07-23T21:32:39.940Z,22.45
2018-07-23T21:35:09.191Z,22.57
2018-07-23T21:37:37.593Z,22.68
2018-07-23T21:40:05.958Z,22.78
2018-07-23T21:42:34.326Z,22.83
2018-07-23T21:45:02.691Z,22.88
2018-07-23T21:47:31.083Z,22.86
2018-07-23T21:49:59.485Z,22.77
2018-07-23T21:52:33.371Z,22.69
2018-07-23T21:55:01.774Z,22.73
2018-07-23T21:57:30.147Z,22.81
2018-07-23T21:59:58.544Z,22.86
2018-07-23T22:02:26.887Z,22.83
2018-07-23T22:04:55.273Z,22.85
2018-07-23T22:07:23.644Z,22.90
2018-07-23T22:09:52.485Z,22.92
2018-07-23T22:12:20.861Z,22.86
2018-07-23T22:14:49.262Z,22.84
2018-07-23T22:17:17.657Z,22.83
2018-07-23T22:19:55.608Z,22.77
2018-07-23T22:22:23.981Z,22.74
2018-07-23T22:24:52.652Z,22.65
2018-07-23T22:27:21.024Z,22.58
2018-07-23T22:29:49.390Z,22.43
2018-07-23T22:32:17.757Z,22.28
2018-07-23T22:34:46.122Z,22.22
2018-07-23T22:37:14.526Z,22.23
2018-07-23T22:39:43.620Z,22.24
2018-07-23T22:42:12.953Z,22.21
2018-07-23T22:44:41.225Z,22.15
2018-07-23T22:47:09.504Z,22.14
2018-07-23T22:49:37.881Z,22.12
2018-07-23T22:52:06.250Z,22.09
2018-07-23T22:54:34.630Z,22.05
2018-07-23T22:57:03.003Z,22.03
2018-07-23T22:59:31.377Z,22.00
2018-07-23T23:01:59.752Z,21.97
2018-07-23T23:04:28.122Z,21.98
2018-07-23T23:06:56.491Z,22.01
2018-07-23T23:09:24.859Z,22.00
2018-07-23T23:11:53.243Z,21.98
2018-07-23T23:14:21.616Z,21.98
2018-07-23T23:16:50.280Z,21.96
2018-07-23T23:19:18.660Z,21.90
2018-07-23T23:21:47.355Z,21.86
2018-07-23T23:24:15.728Z,21.85
2018-07-23T23:26:44.094Z,21.85
2018-07-23T23:29:12.464Z,21.85
2018-07-23T23:31:40.834Z,21.80
2018-07-23T23:34:09.204Z,21.80
2018-07-23T23:36:37.592Z,21.74
2018-07-23T23:39:05.999Z,21.76
2018-07-23T23:41:34.369Z,21.66
2018-07-23T23:44:02.742Z,21.56
2018-07-23T23:46:31.129Z,21.57
2018-07-23T23:48:59.723Z,21.59
2018-07-23T23:51:27.869Z,21.57
2018-07-23T23:53:56.237Z,21.58
2018-07-23T23:56:24.614Z,21.56
2018-07-23T23:58:52.981Z,21.51
